sensor_id;sensor_type;location;lat;lon;timestamp;temperature;humidity
5457;DHT22;2751;49.802;9.944;2023-03-03T00:01:16;2.40;1.00
5457;DHT22;2751;49.802;9.944;2023-03-03T00:03:43;2.40;1.00
5457;DHT22;2751;49.802;9.944;2023-03-03T00:06:12;2.40;1.00
5457;DHT22;2751;49.802;9.944;2023-03-03T00:08:39;2.40;1.00
5457;DHT22;2751;49.802;9.944;2023-03-03T00:11:08;2.40;1.00
5457;DHT22;2751;49.802;9.944;2023-03-03T00:13:43;2.40;1.00
5457;DHT22;2751;49.802;9.944;2023-03-03T00:16:15;2.40;1.00
5457;DHT22;2751;49.802;9.944;2023-03-03T00:18:44;2.30;1.00
5457;DHT22;2751;49.802;9.944;2023-03-03T00:21:24;2.30;1.00
5457;DHT22;2751;49.802;9.944;2023-03-03T00:23:54;2.30;1.00
5457;DHT22;2751;49.802;9.944;2023-03-03T00:26:26;2.70;1.00
5457;DHT22;2751;49.802;9.944;2023-03-03T00:28:55;2.60;1.00
5457;DHT22;2751;49.802;9.944;2023-03-03T00:31:26;2.50;1.00
5457;DHT22;2751;49.802;9.944;2023-03-03T00:33:55;2.20;1.00
5457;DHT22;2751;49.802;9.944;2023-03-03T00:36:30;2.20;1.00
5457;DHT22;2751;49.802;9.944;2023-03-03T00:39:27;2.10;1.00
5457;DHT22;2751;49.802;9.944;2023-03-03T00:41:56;2.10;1.00
5457;DHT22;2751;49.802;9.944;2023-03-03T00:44:42;2.10;1.00
5457;DHT22;2751;49.802;9.944;2023-03-03T00:47:21;2.00;1.00
5457;DHT22;2751;49.802;9.944;2023-03-03T00:49:49;2.10;1.00
5457;DHT22;2751;49.802;9.944;2023-03-03T00:52:17;2.10;1.00
5457;DHT22;2751;49.802;9.944;2023-03-03T00:54:45;2.10;1.00
5457;DHT22;2751;49.802;9.944;2023-03-03T00:57:13;2.40;1.00
5457;DHT22;2751;49.802;9.944;2023-03-03T00:59:40;2.00;1.00
5457;DHT22;2751;49.802;9.944;2023-03-03T01:02:07;2.00;1.00
5457;DHT22;2751;49.802;9.944;2023-03-03T01:04:33;2.00;1.00
5457;DHT22;2751;49.802;9.944;2023-03-03T01:07:00;2.00;1.00
5457;DHT22;2751;49.802;9.944;2023-03-03T01:09:27;2.00;1.00
5457;DHT22;2751;49.802;9.944;2023-03-03T01:11:54;1.90;1.00
5457;DHT22;2751;49.802;9.944;2023-03-03T01:14:23;1.80;1.00
5457;DHT22;2751;49.802;9.944;2023-03-03T01:16:50;2.00;1.00
5457;DHT22;2751;49.802;9.944;2023-03-03T01:19:16;1.70;1.00
5457;DHT22;2751;49.802;9.944;2023-03-03T01:21:43;1.70;1.00
5457;DHT22;2751;49.802;9.944;2023-03-03T01:24:10;1.60;1.00
5457;DHT22;2751;49.802;9.944;2023-03-03T01:26:37;1.70;1.00
5457;DHT22;2751;49.802;9.944;2023-03-03T01:29:04;1.70;1.00
5457;DHT22;2751;49.802;9.944;2023-03-03T01:31:32;1.70;1.00
5457;DHT22;2751;49.802;9.944;2023-03-03T01:33:59;1.60;1.00
5457;DHT22;2751;49.802;9.944;2023-03-03T01:36:27;1.60;1.00
5457;DHT22;2751;49.802;9.944;2023-03-03T01:38:55;1.50;1.00
5457;DHT22;2751;49.802;9.944;2023-03-03T01:41:21;1.50;1.00
5457;DHT22;2751;49.802;9.944;2023-03-03T01:43:49;1.50;1.00
5457;DHT22;2751;49.802;9.944;2023-03-03T01:46:49;1.50;1.00
5457;DHT22;2751;49.802;9.944;2023-03-03T01:49:20;1.50;1.00
5457;DHT22;2751;49.802;9.944;2023-03-03T01:51:51;1.50;1.00
5457;DHT22;2751;49.802;9.944;2023-03-03T01:54:22;1.50;1.00
5457;DHT22;2751;49.802;9.944;2023-03-03T01:56:51;1.40;1.00
5457;DHT22;2751;49.802;9.944;2023-03-03T01:59:21;1.60;1.00
5457;DHT22;2751;49.802;9.944;2023-03-03T02:01:50;1.30;1.00
5457;DHT22;2751;49.802;9.944;2023-03-03T02:04:18;1.30;1.00
5457;DHT22;2751;49.802;9.944;2023-03-03T02:06:49;1.30;1.00
5457;DHT22;2751;49.802;9.944;2023-03-03T02:09:22;1.30;1.00
5457;DHT22;2751;49.802;9.944;2023-03-03T02:11:56;1.30;1.00
5457;DHT22;2751;49.802;9.944;2023-03-03T02:14:24;1.20;1.00
5457;DHT22;2751;49.802;9.944;2023-03-03T02:16:52;1.30;1.00
5457;DHT22;2751;49.802;9.944;2023-03-03T02:19:25;1.20;1.00
5457;DHT22;2751;49.802;9.944;2023-03-03T02:21:58;1.30;1.00
5457;DHT22;2751;49.802;9.944;2023-03-03T02:24:28;1.20;1.00
5457;DHT22;2751;49.802;9.944;2023-03-03T02:27:00;1.20;1.00
5457;DHT22;2751;49.802;9.944;2023-03-03T02:29:27;1.20;1.00
5457;DHT22;2751;49.802;9.944;2023-03-03T02:31:54;1.20;1.00
5457;DHT22;2751;49.802;9.944;2023-03-03T02:34:21;1.20;1.00
5457;DHT22;2751;49.802;9.944;2023-03-03T02:36:48;1.20;1.00
5457;DHT22;2751;49.802;9.944;2023-03-03T02:39:17;1.10;1.00
5457;DHT22;2751;49.802;9.944;2023-03-03T02:41:47;1.10;1.00
5457;DHT22;2751;49.802;9.944;2023-03-03T02:44:18;1.10;1.00
5457;DHT22;2751;49.802;9.944;2023-03-03T02:46:47;1.10;1.00
5457;DHT22;2751;49.802;9.944;2023-03-03T02:49:16;1.10;1.00
5457;DHT22;2751;49.802;9.944;2023-03-03T02:51:43;1.10;1.00
5457;DHT22;2751;49.802;9.944;2023-03-03T02:54:12;1.00;1.00
5457;DHT22;2751;49.802;9.944;2023-03-03T02:56:39;0.90;1.00
5457;DHT22;2751;49.802;9.944;2023-03-03T02:59:06;0.90;1.00
5457;DHT22;2751;49.802;9.944;2023-03-03T03:01:34;0.90;1.00
5457;DHT22;2751;49.802;9.944;2023-03-03T03:04:03;0.80;1.00
5457;DHT22;2751;49.802;9.944;2023-03-03T03:06:31;0.80;1.00
5457;DHT22;2751;49.802;9.944;2023-03-03T03:08:58;0.80;1.00
5457;DHT22;2751;49.802;9.944;2023-03-03T03:11:25;0.80;1.00
5457;DHT22;2751;49.802;9.944;2023-03-03T03:13:52;0.80;1.00
5457;DHT22;2751;49.802;9.944;2023-03-03T03:16:18;0.80;1.00
5457;DHT22;2751;49.802;9.944;2023-03-03T03:18:47;0.80;1.00
5457;DHT22;2751;49.802;9.944;2023-03-03T03:21:15;0.70;1.00
5457;DHT22;2751;49.802;9.944;2023-03-03T03:23:42;0.70;1.00
5457;DHT22;2751;49.802;9.944;2023-03-03T03:26:10;0.70;1.00
5457;DHT22;2751;49.802;9.944;2023-03-03T03:28:37;0.70;1.00
5457;DHT22;2751;49.802;9.944;2023-03-03T03:31:05;0.70;1.00
5457;DHT22;2751;49.802;9.944;2023-03-03T03:33:32;0.60;1.00
5457;DHT22;2751;49.802;9.944;2023-03-03T03:36:01;0.60;1.00
5457;DHT22;2751;49.802;9.944;2023-03-03T03:38:28;0.60;1.00
5457;DHT22;2751;49.802;9.944;2023-03-03T03:40:57;0.70;1.00
5457;DHT22;2751;49.802;9.944;2023-03-03T03:43:24;0.80;1.00
5457;DHT22;2751;49.802;9.944;2023-03-03T03:45:51;0.60;1.00
5457;DHT22;2751;49.802;9.944;2023-03-03T03:48:18;0.60;1.00
5457;DHT22;2751;49.802;9.944;2023-03-03T03:50:46;0.60;1.00
5457;DHT22;2751;49.802;9.944;2023-03-03T03:53:15;0.80;1.00
5457;DHT22;2751;49.802;9.944;2023-03-03T03:55:42;1.00;1.00
5457;DHT22;2751;49.802;9.944;2023-03-03T03:58:12;0.60;1.00
5457;DHT22;2751;49.802;9.944;2023-03-03T04:00:39;0.60;1.00
5457;DHT22;2751;49.802;9.944;2023-03-03T04:03:06;0.60;1.00
5457;DHT22;2751;49.802;9.944;2023-03-03T04:05:33;0.50;1.00
5457;DHT22;2751;49.802;9.944;2023-03-03T04:08:00;0.50;1.00
5457;DHT22;2751;49.802;9.944;2023-03-03T04:10:28;0.50;1.00
5457;DHT22;2751;49.802;9.944;2023-03-03T04:12:55;0.40;1.00
5457;DHT22;2751;49.802;9.944;2023-03-03T04:15:22;0.40;1.00
5457;DHT22;2751;49.802;9.944;2023-03-03T04:17:48;0.40;1.00
5457;DHT22;2751;49.802;9.944;2023-03-03T04:20:15;0.40;1.00
5457;DHT22;2751;49.802;9.944;2023-03-03T04:22:43;0.50;1.00
5457;DHT22;2751;49.802;9.944;2023-03-03T04:25:11;0.40;1.00
5457;DHT22;2751;49.802;9.944;2023-03-03T04:27:41;0.40;1.00
5457;DHT22;2751;49.802;9.944;2023-03-03T04:30:10;0.40;1.00
5457;DHT22;2751;49.802;9.944;2023-03-03T04:32:37;0.40;1.00
5457;DHT22;2751;49.802;9.944;2023-03-03T04:35:06;0.40;1.00
5457;DHT22;2751;49.802;9.944;2023-03-03T04:37:34;0.40;1.00
5457;DHT22;2751;49.802;9.944;2023-03-03T04:40:01;0.30;1.00
5457;DHT22;2751;49.802;9.944;2023-03-03T04:42:28;0.30;1.00
5457;DHT22;2751;49.802;9.944;2023-03-03T04:44:56;0.30;1.00
5457;DHT22;2751;49.802;9.944;2023-03-03T04:47:23;0.70;1.00
5457;DHT22;2751;49.802;9.944;2023-03-03T04:49:50;0.30;1.00
5457;DHT22;2751;49.802;9.944;2023-03-03T04:52:17;0.30;6.00
5457;DHT22;2751;49.802;9.944;2023-03-03T04:54:44;0.20;19.30
5457;DHT22;2751;49.802;9.944;2023-03-03T04:57:11;0.20;18.50
5457;DHT22;2751;49.802;9.944;2023-03-03T04:59:38;0.60;22.40
5457;DHT22;2751;49.802;9.944;2023-03-03T05:02:06;0.20;23.50
5457;DHT22;2751;49.802;9.944;2023-03-03T05:04:33;0.20;24.50
5457;DHT22;2751;49.802;9.944;2023-03-03T05:07:00;0.20;34.10
5457;DHT22;2751;49.802;9.944;2023-03-03T05:09:27;0.40;63.60
5457;DHT22;2751;49.802;9.944;2023-03-03T05:11:54;0.10;57.80
5457;DHT22;2751;49.802;9.944;2023-03-03T05:14:21;0.10;82.10
5457;DHT22;2751;49.802;9.944;2023-03-03T05:16:47;0.10;91.80
5457;DHT22;2751;49.802;9.944;2023-03-03T05:19:16;0.50;99.90
5457;DHT22;2751;49.802;9.944;2023-03-03T05:21:43;0.10;99.90
5457;DHT22;2751;49.802;9.944;2023-03-03T05:24:11;0.10;99.90
5457;DHT22;2751;49.802;9.944;2023-03-03T05:26:38;0.10;99.90
5457;DHT22;2751;49.802;9.944;2023-03-03T05:29:06;0.10;99.90
5457;DHT22;2751;49.802;9.944;2023-03-03T05:31:33;0.60;99.90
5457;DHT22;2751;49.802;9.944;2023-03-03T05:34:00;0.10;99.90
5457;DHT22;2751;49.802;9.944;2023-03-03T05:36:28;0.10;99.90
5457;DHT22;2751;49.802;9.944;2023-03-03T05:38:55;0.10;99.90
5457;DHT22;2751;49.802;9.944;2023-03-03T05:41:22;0.10;99.90
5457;DHT22;2751;49.802;9.944;2023-03-03T05:43:49;0.20;99.90
5457;DHT22;2751;49.802;9.944;2023-03-03T05:46:16;0.00;99.90
5457;DHT22;2751;49.802;9.944;2023-03-03T05:48:43;0.00;99.90
5457;DHT22;2751;49.802;9.944;2023-03-03T05:51:10;0.10;99.90
5457;DHT22;2751;49.802;9.944;2023-03-03T05:53:38;0.00;99.90
5457;DHT22;2751;49.802;9.944;2023-03-03T05:56:05;0.00;99.90
5457;DHT22;2751;49.802;9.944;2023-03-03T05:58:32;0.00;99.90
5457;DHT22;2751;49.802;9.944;2023-03-03T06:00:59;0.00;99.90
5457;DHT22;2751;49.802;9.944;2023-03-03T06:03:26;0.00;99.90
5457;DHT22;2751;49.802;9.944;2023-03-03T06:05:53;0.00;99.90
5457;DHT22;2751;49.802;9.944;2023-03-03T06:08:20;0.00;99.90
5457;DHT22;2751;49.802;9.944;2023-03-03T06:10:48;0.00;99.90
5457;DHT22;2751;49.802;9.944;2023-03-03T06:13:15;0.00;99.90
5457;DHT22;2751;49.802;9.944;2023-03-03T06:15:42;0.00;99.90
5457;DHT22;2751;49.802;9.944;2023-03-03T06:18:09;0.00;99.90
5457;DHT22;2751;49.802;9.944;2023-03-03T06:20:36;0.00;99.90
5457;DHT22;2751;49.802;9.944;2023-03-03T06:23:03;0.00;99.90
5457;DHT22;2751;49.802;9.944;2023-03-03T06:25:30;0.00;99.90
5457;DHT22;2751;49.802;9.944;2023-03-03T06:28:01;0.00;99.90
5457;DHT22;2751;49.802;9.944;2023-03-03T06:30:28;0.00;99.90
5457;DHT22;2751;49.802;9.944;2023-03-03T06:32:56;0.00;99.90
5457;DHT22;2751;49.802;9.944;2023-03-03T06:35:23;0.10;99.90
5457;DHT22;2751;49.802;9.944;2023-03-03T06:37:50;0.10;99.90
5457;DHT22;2751;49.802;9.944;2023-03-03T06:40:17;0.10;99.90
5457;DHT22;2751;49.802;9.944;2023-03-03T06:42:44;0.20;99.90
5457;DHT22;2751;49.802;9.944;2023-03-03T06:45:13;0.20;99.90
5457;DHT22;2751;49.802;9.944;2023-03-03T06:47:40;0.30;99.90
5457;DHT22;2751;49.802;9.944;2023-03-03T06:50:08;0.30;99.90
5457;DHT22;2751;49.802;9.944;2023-03-03T06:52:36;0.40;99.90
5457;DHT22;2751;49.802;9.944;2023-03-03T06:55:11;0.40;99.90
5457;DHT22;2751;49.802;9.944;2023-03-03T06:57:38;0.50;99.90
5457;DHT22;2751;49.802;9.944;2023-03-03T07:00:16;0.50;98.40
5457;DHT22;2751;49.802;9.944;2023-03-03T07:02:45;0.50;59.30
5457;DHT22;2751;49.802;9.944;2023-03-03T07:05:14;0.60;48.70
5457;DHT22;2751;49.802;9.944;2023-03-03T07:07:42;0.60;37.40
5457;DHT22;2751;49.802;9.944;2023-03-03T07:10:22;0.60;52.00
5457;DHT22;2751;49.802;9.944;2023-03-03T07:12:50;0.70;21.00
5457;DHT22;2751;49.802;9.944;2023-03-03T07:15:21;0.70;13.80
5457;DHT22;2751;49.802;9.944;2023-03-03T07:17:52;0.80;16.80
5457;DHT22;2751;49.802;9.944;2023-03-03T07:20:24;1.00;1.00
5457;DHT22;2751;49.802;9.944;2023-03-03T07:22:54;1.20;1.00
5457;DHT22;2751;49.802;9.944;2023-03-03T07:25:25;1.50;1.00
5457;DHT22;2751;49.802;9.944;2023-03-03T07:27:56;2.10;1.00
5457;DHT22;2751;49.802;9.944;2023-03-03T07:30:27;2.20;1.00
5457;DHT22;2751;49.802;9.944;2023-03-03T07:32:55;2.40;1.00
5457;DHT22;2751;49.802;9.944;2023-03-03T07:35:37;2.70;1.00
5457;DHT22;2751;49.802;9.944;2023-03-03T07:38:15;3.10;1.00
5457;DHT22;2751;49.802;9.944;2023-03-03T07:40:47;3.80;1.00
5457;DHT22;2751;49.802;9.944;2023-03-03T07:43:34;3.90;1.00
5457;DHT22;2751;49.802;9.944;2023-03-03T07:46:22;4.30;1.00
5457;DHT22;2751;49.802;9.944;2023-03-03T07:48:52;4.90;1.00
5457;DHT22;2751;49.802;9.944;2023-03-03T07:51:21;5.20;1.00
5457;DHT22;2751;49.802;9.944;2023-03-03T07:53:50;5.50;1.00
5457;DHT22;2751;49.802;9.944;2023-03-03T07:56:25;6.20;1.00
5457;DHT22;2751;49.802;9.944;2023-03-03T07:58:53;6.60;1.00
5457;DHT22;2751;49.802;9.944;2023-03-03T08:01:31;6.70;1.00
5457;DHT22;2751;49.802;9.944;2023-03-03T08:04:11;7.10;1.00
5457;DHT22;2751;49.802;9.944;2023-03-03T08:06:45;7.30;1.00
5457;DHT22;2751;49.802;9.944;2023-03-03T08:09:35;7.50;1.00
5457;DHT22;2751;49.802;9.944;2023-03-03T08:12:33;7.90;1.00
5457;DHT22;2751;49.802;9.944;2023-03-03T08:15:20;8.20;1.00
5457;DHT22;2751;49.802;9.944;2023-03-03T08:17:51;8.60;1.00
5457;DHT22;2751;49.802;9.944;2023-03-03T08:20:42;8.70;1.00
5457;DHT22;2751;49.802;9.944;2023-03-03T08:23:10;8.80;1.00
5457;DHT22;2751;49.802;9.944;2023-03-03T08:25:37;8.80;1.00
5457;DHT22;2751;49.802;9.944;2023-03-03T08:28:05;8.80;1.00
5457;DHT22;2751;49.802;9.944;2023-03-03T08:30:32;8.90;1.00
5457;DHT22;2751;49.802;9.944;2023-03-03T08:33:00;9.00;1.00
5457;DHT22;2751;49.802;9.944;2023-03-03T08:35:27;9.40;1.00
5457;DHT22;2751;49.802;9.944;2023-03-03T08:37:54;9.80;1.00
5457;DHT22;2751;49.802;9.944;2023-03-03T08:40:21;9.90;1.00
5457;DHT22;2751;49.802;9.944;2023-03-03T08:42:48;9.90;1.00
5457;DHT22;2751;49.802;9.944;2023-03-03T08:45:15;10.10;1.00
5457;DHT22;2751;49.802;9.944;2023-03-03T08:47:42;10.30;1.00
5457;DHT22;2751;49.802;9.944;2023-03-03T08:50:11;10.00;1.00
5457;DHT22;2751;49.802;9.944;2023-03-03T08:52:39;10.20;1.00
5457;DHT22;2751;49.802;9.944;2023-03-03T08:55:06;10.30;1.00
5457;DHT22;2751;49.802;9.944;2023-03-03T08:57:33;10.40;1.00
5457;DHT22;2751;49.802;9.944;2023-03-03T08:59:59;11.10;1.00
5457;DHT22;2751;49.802;9.944;2023-03-03T09:02:26;11.40;1.00
5457;DHT22;2751;49.802;9.944;2023-03-03T09:04:53;12.00;1.00
5457;DHT22;2751;49.802;9.944;2023-03-03T09:07:22;12.10;1.00
5457;DHT22;2751;49.802;9.944;2023-03-03T09:09:48;12.20;1.00
5457;DHT22;2751;49.802;9.944;2023-03-03T09:12:18;12.40;1.00
5457;DHT22;2751;49.802;9.944;2023-03-03T09:14:46;12.40;1.00
5457;DHT22;2751;49.802;9.944;2023-03-03T09:17:23;11.90;1.00
5457;DHT22;2751;49.802;9.944;2023-03-03T09:19:51;12.60;1.00
5457;DHT22;2751;49.802;9.944;2023-03-03T09:22:19;12.50;1.00
5457;DHT22;2751;49.802;9.944;2023-03-03T09:24:49;12.50;1.00
5457;DHT22;2751;49.802;9.944;2023-03-03T09:27:24;12.60;1.00
5457;DHT22;2751;49.802;9.944;2023-03-03T09:29:52;13.50;1.00
5457;DHT22;2751;49.802;9.944;2023-03-03T09:32:26;14.10;1.00
5457;DHT22;2751;49.802;9.944;2023-03-03T09:34:55;14.10;1.00
5457;DHT22;2751;49.802;9.944;2023-03-03T09:37:26;14.60;1.00
5457;DHT22;2751;49.802;9.944;2023-03-03T09:39:55;15.30;1.00
5457;DHT22;2751;49.802;9.944;2023-03-03T09:42:44;15.40;1.00
5457;DHT22;2751;49.802;9.944;2023-03-03T09:45:33;15.00;1.00
5457;DHT22;2751;49.802;9.944;2023-03-03T09:51:18;15.40;1.00
5457;DHT22;2751;49.802;9.944;2023-03-03T09:54:00;15.50;1.00
5457;DHT22;2751;49.802;9.944;2023-03-03T09:56:34;16.10;1.00
5457;DHT22;2751;49.802;9.944;2023-03-03T09:59:13;16.10;1.00
5457;DHT22;2751;49.802;9.944;2023-03-03T10:01:59;15.70;1.00
5457;DHT22;2751;49.802;9.944;2023-03-03T10:04:41;15.90;1.00
5457;DHT22;2751;49.802;9.944;2023-03-03T10:07:20;15.90;1.00
5457;DHT22;2751;49.802;9.944;2023-03-03T10:10:05;16.10;1.00
5457;DHT22;2751;49.802;9.944;2023-03-03T10:12:42;15.90;1.00
5457;DHT22;2751;49.802;9.944;2023-03-03T10:15:31;16.20;1.00
5457;DHT22;2751;49.802;9.944;2023-03-03T10:18:04;16.60;1.00
5457;DHT22;2751;49.802;9.944;2023-03-03T10:20:49;17.30;1.00
5457;DHT22;2751;49.802;9.944;2023-03-03T10:23:20;17.50;1.00
5457;DHT22;2751;49.802;9.944;2023-03-03T10:25:54;17.90;1.00
5457;DHT22;2751;49.802;9.944;2023-03-03T10:28:59;17.50;1.00
5457;DHT22;2751;49.802;9.944;2023-03-03T10:31:36;17.00;1.00
5457;DHT22;2751;49.802;9.944;2023-03-03T10:34:17;17.60;1.00
5457;DHT22;2751;49.802;9.944;2023-03-03T10:36:54;18.20;1.00
5457;DHT22;2751;49.802;9.944;2023-03-03T10:39:36;18.60;1.00
5457;DHT22;2751;49.802;9.944;2023-03-03T10:42:22;18.90;1.00
5457;DHT22;2751;49.802;9.944;2023-03-03T10:45:15;19.20;1.00
5457;DHT22;2751;49.802;9.944;2023-03-03T10:47:57;18.80;1.00
5457;DHT22;2751;49.802;9.944;2023-03-03T10:50:45;18.50;1.00
5457;DHT22;2751;49.802;9.944;2023-03-03T10:53:21;18.70;1.00
5457;DHT22;2751;49.802;9.944;2023-03-03T10:56:00;18.50;1.00
5457;DHT22;2751;49.802;9.944;2023-03-03T10:58:45;19.00;1.00
5457;DHT22;2751;49.802;9.944;2023-03-03T11:01:20;18.10;1.00
5457;DHT22;2751;49.802;9.944;2023-03-03T11:04:05;16.40;1.00
5457;DHT22;2751;49.802;9.944;2023-03-03T11:06:41;15.20;1.00
5457;DHT22;2751;49.802;9.944;2023-03-03T11:09:33;13.80;1.00
5457;DHT22;2751;49.802;9.944;2023-03-03T11:12:11;12.40;1.00
5457;DHT22;2751;49.802;9.944;2023-03-03T11:14:46;12.10;1.00
5457;DHT22;2751;49.802;9.944;2023-03-03T11:17:21;11.30;1.00
5457;DHT22;2751;49.802;9.944;2023-03-03T11:19:58;10.80;1.00
5457;DHT22;2751;49.802;9.944;2023-03-03T11:22:33;10.70;1.00
5457;DHT22;2751;49.802;9.944;2023-03-03T11:25:24;10.40;1.00
5457;DHT22;2751;49.802;9.944;2023-03-03T11:28:16;10.10;1.00
5457;DHT22;2751;49.802;9.944;2023-03-03T11:31:08;9.80;1.00
5457;DHT22;2751;49.802;9.944;2023-03-03T11:33:48;9.70;1.00
5457;DHT22;2751;49.802;9.944;2023-03-03T11:36:24;9.60;1.00
5457;DHT22;2751;49.802;9.944;2023-03-03T11:38:56;9.40;1.00
5457;DHT22;2751;49.802;9.944;2023-03-03T11:41:30;9.40;1.00
5457;DHT22;2751;49.802;9.944;2023-03-03T11:44:04;9.40;1.00
5457;DHT22;2751;49.802;9.944;2023-03-03T11:46:39;9.30;1.00
5457;DHT22;2751;49.802;9.944;2023-03-03T11:49:14;9.20;1.00
5457;DHT22;2751;49.802;9.944;2023-03-03T11:51:48;9.10;1.00
5457;DHT22;2751;49.802;9.944;2023-03-03T11:54:21;9.10;1.00
5457;DHT22;2751;49.802;9.944;2023-03-03T11:56:49;9.10;1.00
5457;DHT22;2751;49.802;9.944;2023-03-03T11:59:36;9.00;1.00
5457;DHT22;2751;49.802;9.944;2023-03-03T12:04:59;9.00;1.00
5457;DHT22;2751;49.802;9.944;2023-03-03T12:07:33;9.10;1.00
5457;DHT22;2751;49.802;9.944;2023-03-03T12:10:13;9.30;1.00
5457;DHT22;2751;49.802;9.944;2023-03-03T12:12:44;9.10;1.00
5457;DHT22;2751;49.802;9.944;2023-03-03T12:15:21;9.50;1.00
5457;DHT22;2751;49.802;9.944;2023-03-03T12:20:53;9.20;1.00
5457;DHT22;2751;49.802;9.944;2023-03-03T12:23:50;9.30;1.00
5457;DHT22;2751;49.802;9.944;2023-03-03T12:26:25;9.30;1.00
5457;DHT22;2751;49.802;9.944;2023-03-03T12:28:54;9.40;1.00
5457;DHT22;2751;49.802;9.944;2023-03-03T12:31:32;9.40;1.00
5457;DHT22;2751;49.802;9.944;2023-03-03T12:34:07;9.40;1.00
5457;DHT22;2751;49.802;9.944;2023-03-03T12:36:52;9.60;1.00
5457;DHT22;2751;49.802;9.944;2023-03-03T12:39:29;9.40;1.00
5457;DHT22;2751;49.802;9.944;2023-03-03T12:42:05;9.80;1.00
5457;DHT22;2751;49.802;9.944;2023-03-03T12:44:37;9.40;1.00
5457;DHT22;2751;49.802;9.944;2023-03-03T12:47:11;9.40;1.00
5457;DHT22;2751;49.802;9.944;2023-03-03T12:49:45;9.50;1.00
5457;DHT22;2751;49.802;9.944;2023-03-03T12:52:24;9.80;1.00
5457;DHT22;2751;49.802;9.944;2023-03-03T12:55:04;9.60;1.00
5457;DHT22;2751;49.802;9.944;2023-03-03T12:57:41;9.60;1.00
5457;DHT22;2751;49.802;9.944;2023-03-03T13:00:28;9.60;1.00
5457;DHT22;2751;49.802;9.944;2023-03-03T13:03:04;9.80;1.00
5457;DHT22;2751;49.802;9.944;2023-03-03T13:05:46;9.70;1.00
5457;DHT22;2751;49.802;9.944;2023-03-03T13:08:32;9.80;1.00
5457;DHT22;2751;49.802;9.944;2023-03-03T13:11:18;9.70;1.00
5457;DHT22;2751;49.802;9.944;2023-03-03T13:13:51;9.80;1.00
5457;DHT22;2751;49.802;9.944;2023-03-03T13:16:23;10.00;1.00
5457;DHT22;2751;49.802;9.944;2023-03-03T13:18:56;9.80;1.00
5457;DHT22;2751;49.802;9.944;2023-03-03T13:21:28;9.90;1.00
5457;DHT22;2751;49.802;9.944;2023-03-03T13:24:05;9.90;1.00
5457;DHT22;2751;49.802;9.944;2023-03-03T13:26:40;10.10;1.00
5457;DHT22;2751;49.802;9.944;2023-03-03T13:29:13;10.00;1.00
5457;DHT22;2751;49.802;9.944;2023-03-03T13:31:46;9.80;1.00
5457;DHT22;2751;49.802;9.944;2023-03-03T13:34:22;9.80;1.00
5457;DHT22;2751;49.802;9.944;2023-03-03T13:36:55;9.90;1.00
5457;DHT22;2751;49.802;9.944;2023-03-03T13:39:27;10.00;1.00
5457;DHT22;2751;49.802;9.944;2023-03-03T13:42:00;10.10;1.00
5457;DHT22;2751;49.802;9.944;2023-03-03T13:44:30;10.00;1.00
5457;DHT22;2751;49.802;9.944;2023-03-03T13:47:12;10.10;1.00
5457;DHT22;2751;49.802;9.944;2023-03-03T13:49:59;10.10;1.00
5457;DHT22;2751;49.802;9.944;2023-03-03T13:52:28;10.10;1.00
5457;DHT22;2751;49.802;9.944;2023-03-03T13:55:18;10.20;1.00
5457;DHT22;2751;49.802;9.944;2023-03-03T13:57:57;10.20;1.00
5457;DHT22;2751;49.802;9.944;2023-03-03T14:00:43;10.20;1.00
5457;DHT22;2751;49.802;9.944;2023-03-03T14:06:14;10.20;1.00
5457;DHT22;2751;49.802;9.944;2023-03-03T14:08:52;10.20;1.00
5457;DHT22;2751;49.802;9.944;2023-03-03T14:11:28;10.20;1.00
5457;DHT22;2751;49.802;9.944;2023-03-03T14:14:02;10.60;1.00
5457;DHT22;2751;49.802;9.944;2023-03-03T14:16:49;10.30;1.00
5457;DHT22;2751;49.802;9.944;2023-03-03T14:19:20;10.30;1.00
5457;DHT22;2751;49.802;9.944;2023-03-03T14:21:58;10.60;1.00
5457;DHT22;2751;49.802;9.944;2023-03-03T14:24:28;10.40;1.00
5457;DHT22;2751;49.802;9.944;2023-03-03T14:26:58;10.40;1.00
5457;DHT22;2751;49.802;9.944;2023-03-03T14:29:30;10.40;1.00
5457;DHT22;2751;49.802;9.944;2023-03-03T14:31:59;10.50;1.00
5457;DHT22;2751;49.802;9.944;2023-03-03T14:34:35;10.50;1.00
5457;DHT22;2751;49.802;9.944;2023-03-03T14:37:22;10.60;1.00
5457;DHT22;2751;49.802;9.944;2023-03-03T14:39:59;10.60;1.00
5457;DHT22;2751;49.802;9.944;2023-03-03T14:42:36;10.50;1.00
5457;DHT22;2751;49.802;9.944;2023-03-03T14:45:19;10.50;1.00
5457;DHT22;2751;49.802;9.944;2023-03-03T14:47:46;10.50;1.00
5457;DHT22;2751;49.802;9.944;2023-03-03T14:50:34;10.40;1.00
5457;DHT22;2751;49.802;9.944;2023-03-03T14:53:14;10.30;1.00
5457;DHT22;2751;49.802;9.944;2023-03-03T14:55:42;10.20;1.00
5457;DHT22;2751;49.802;9.944;2023-03-03T14:58:26;10.50;1.00
5457;DHT22;2751;49.802;9.944;2023-03-03T15:01:20;10.20;1.00
5457;DHT22;2751;49.802;9.944;2023-03-03T15:03:49;10.30;1.00
5457;DHT22;2751;49.802;9.944;2023-03-03T15:06:35;10.00;1.00
5457;DHT22;2751;49.802;9.944;2023-03-03T15:09:29;10.00;1.00
5457;DHT22;2751;49.802;9.944;2023-03-03T15:12:00;10.00;1.00
5457;DHT22;2751;49.802;9.944;2023-03-03T15:14:31;10.00;1.00
5457;DHT22;2751;49.802;9.944;2023-03-03T15:17:25;10.30;1.00
5457;DHT22;2751;49.802;9.944;2023-03-03T15:20:12;10.00;1.00
5457;DHT22;2751;49.802;9.944;2023-03-03T15:22:48;10.00;1.00
5457;DHT22;2751;49.802;9.944;2023-03-03T15:25:26;10.10;1.00
5457;DHT22;2751;49.802;9.944;2023-03-03T15:28:05;10.00;1.00
5457;DHT22;2751;49.802;9.944;2023-03-03T15:30:44;10.10;1.00
5457;DHT22;2751;49.802;9.944;2023-03-03T15:33:22;10.00;1.00
5457;DHT22;2751;49.802;9.944;2023-03-03T15:35:57;10.30;1.00
5457;DHT22;2751;49.802;9.944;2023-03-03T15:38:34;10.00;1.00
5457;DHT22;2751;49.802;9.944;2023-03-03T15:41:16;10.00;1.00
5457;DHT22;2751;49.802;9.944;2023-03-03T15:43:51;10.40;1.00
5457;DHT22;2751;49.802;9.944;2023-03-03T15:46:30;9.90;1.00
5457;DHT22;2751;49.802;9.944;2023-03-03T15:49:08;9.90;1.00
5457;DHT22;2751;49.802;9.944;2023-03-03T15:51:46;9.80;1.00
5457;DHT22;2751;49.802;9.944;2023-03-03T15:54:29;9.80;1.00
5457;DHT22;2751;49.802;9.944;2023-03-03T15:57:04;9.70;1.00
5457;DHT22;2751;49.802;9.944;2023-03-03T16:00:13;9.70;1.00
5457;DHT22;2751;49.802;9.944;2023-03-03T16:02:51;9.60;1.00
5457;DHT22;2751;49.802;9.944;2023-03-03T16:05:22;9.60;1.00
5457;DHT22;2751;49.802;9.944;2023-03-03T16:07:58;9.50;1.00
5457;DHT22;2751;49.802;9.944;2023-03-03T16:10:35;9.80;1.00
5457;DHT22;2751;49.802;9.944;2023-03-03T16:13:21;9.50;1.00
5457;DHT22;2751;49.802;9.944;2023-03-03T16:16:01;9.40;1.00
5457;DHT22;2751;49.802;9.944;2023-03-03T16:18:39;9.40;1.00
5457;DHT22;2751;49.802;9.944;2023-03-03T16:21:28;9.30;1.00
5457;DHT22;2751;49.802;9.944;2023-03-03T16:24:13;9.30;1.00
5457;DHT22;2751;49.802;9.944;2023-03-03T16:26:46;9.20;1.00
5457;DHT22;2751;49.802;9.944;2023-03-03T16:29:34;9.10;1.00
5457;DHT22;2751;49.802;9.944;2023-03-03T16:32:05;9.10;1.00
5457;DHT22;2751;49.802;9.944;2023-03-03T16:34:42;9.00;1.00
5457;DHT22;2751;49.802;9.944;2023-03-03T16:37:17;9.10;1.00
5457;DHT22;2751;49.802;9.944;2023-03-03T16:39:52;9.10;1.00
5457;DHT22;2751;49.802;9.944;2023-03-03T16:42:25;8.90;1.00
5457;DHT22;2751;49.802;9.944;2023-03-03T16:45:10;8.80;1.00
5457;DHT22;2751;49.802;9.944;2023-03-03T16:47:48;8.70;1.00
5457;DHT22;2751;49.802;9.944;2023-03-03T16:50:26;9.00;1.00
5457;DHT22;2751;49.802;9.944;2023-03-03T16:53:02;8.70;1.00
5457;DHT22;2751;49.802;9.944;2023-03-03T16:55:37;8.60;1.00
5457;DHT22;2751;49.802;9.944;2023-03-03T16:58:17;8.50;1.00
5457;DHT22;2751;49.802;9.944;2023-03-03T17:00:53;8.30;1.00
5457;DHT22;2751;49.802;9.944;2023-03-03T17:03:36;8.20;1.00
5457;DHT22;2751;49.802;9.944;2023-03-03T17:06:12;8.10;1.00
5457;DHT22;2751;49.802;9.944;2023-03-03T17:08:57;7.90;1.00
5457;DHT22;2751;49.802;9.944;2023-03-03T17:11:37;7.80;1.00
5457;DHT22;2751;49.802;9.944;2023-03-03T17:14:25;7.70;1.00
5457;DHT22;2751;49.802;9.944;2023-03-03T17:16:57;7.50;1.00
5457;DHT22;2751;49.802;9.944;2023-03-03T17:19:37;7.40;1.00